Beatty, Nevada
Current Conditions -  °F | °C
As of 8:52 PM on Monday 26 Jan 2015 (Local Time) from KDRA Reporting Station
Light Rain Light Rain  
Wind Chill: 52°   Ceiling: 5500
Heat Index: 52°   Visibility: 10mi
Dew Point: 44°   Wind: 7mph
Humidity: 74%   Direction: 220°SW
Pressure: 30.16"   Gusts: NA
Location:  36.91°N, 116.76°W
Report Text: KDRA 270452Z AUTO 22006KT 10SM -RA OVC055 11/07 A3016 RMK AO2 RAB09 SLP190 P0001 T01110067
Loading
Personal Weather Stations






























Interactive Weather Map New forecast layout! Learn more

10-Day Weather Forecast

Advertisements
Track Severe Weather on mobile